Fort Mcpherson Airport
CZFM : rendu visible

Aérodrome :











RETROUVEZ-NOUS SUR...

 
LOGIN :

S'inscrire | Disclaimer

   EN    FR    IT 

 









Légende :    VFR   VFR Marginal   IFR   IFR Intensif   IFR Très Intensif
Visi : 
Plafond : 
>= 8 km
>= 3000ft
5 à 8 km
1000 à 3000 ft
1500m à 5 km
500 à 1000 ft
800 à 1500m
200 à 500 ft
< 800m
< 200 ft
Symboles :   Orages  Brouillard  Fortes neiges  Fortes précipitations  Vent > 20 kt






- Altitude de l'aérodrome : 116 ft
- Code IATA : ZFM


CZFM - Fort Mcpherson

DERNIER METAR :
  • 291700Z 35010G15KT 35SM FEW090 09/01 A3037 RMK AC1 SLP289

METARs EXPIRÉS :
  • 291600Z 33009KT 35SM FEW090 07/01 A3038 RMK AC1 SLP290
  • 291500Z 33007KT 35SM FEW090 06/01 A3038 RMK AC1 SLP290

TAF TAF CZFM
Valide du 29 à 15h jusqu'au 29 à 23h UTC


291438Z 2915/2923 32005KT P6SM FEW004 SCT080
FM291700 01010KT P6SM FEW010 SCT080 RMK NXT FCST BY 291900Z
FIR CZEG / Amérique du Nord



MET'MAP, la Météo Aéronautique d'un coup d'oeil ! - Copyright ORBIFLY Décembre 2007 - Disclaimer

ORBIFLY MET'MAP TEAM :

Programmation & Développement : Alexandra Zaïnal
Sur une idée originale de : Baudouin d'Aumeries
Assistance à la programmation : Marc-Olivier Méhu
Soutien technique & logistique : Manuel Goepfert

Contact : metmap@orbifly.com




SOURCES & CREDITS :

   NOAA       Earth
Advisory